createdAt,value
2019-02-18T00:00:12.591Z,58.685303
2019-02-18T00:01:22.106Z,58.685303
2019-02-18T00:02:31.632Z,58.789062
2019-02-18T00:03:41.149Z,58.789062
2019-02-18T00:04:50.673Z,58.789062
2019-02-18T00:06:00.182Z,58.892822
2019-02-18T00:07:14.292Z,58.892822
2019-02-18T00:08:20.227Z,58.892822
2019-02-18T00:09:29.755Z,58.892822
2019-02-18T00:10:39.281Z,58.789062
2019-02-18T00:11:48.891Z,58.789062
2019-02-18T00:12:58.384Z,58.581543
2019-02-18T00:14:06.916Z,58.477783
2019-02-18T00:15:16.448Z,58.374023
2019-02-18T00:16:25.974Z,58.270264
2019-02-18T00:17:35.522Z,58.270264
2019-02-18T00:18:45.087Z,58.056641
2019-02-18T00:19:54.617Z,58.056641
2019-02-18T00:21:04.148Z,58.1604
2019-02-18T00:22:13.688Z,58.1604
2019-02-18T00:23:23.206Z,58.270264
2019-02-18T00:24:32.763Z,58.270264
2019-02-18T00:25:42.287Z,58.374023
2019-02-18T00:26:51.823Z,58.477783
2019-02-18T00:28:01.353Z,58.477783
2019-02-18T00:29:10.898Z,58.477783
2019-02-18T00:30:20.445Z,58.581543
2019-02-18T00:31:29.991Z,58.477783
2019-02-18T00:32:39.539Z,58.605957
2019-02-18T00:33:50.051Z,58.605957
2019-02-18T00:34:59.606Z,58.709717
2019-02-18T00:36:09.137Z,58.92334
2019-02-18T00:37:24.318Z,58.92334
2019-02-18T00:38:29.189Z,59.130859
2019-02-18T00:39:38.757Z,59.234619
2019-02-18T00:40:48.277Z,59.259033
2019-02-18T00:41:57.799Z,59.472656
2019-02-18T00:43:07.323Z,59.472656
2019-02-18T00:44:16.904Z,59.576416
2019-02-18T00:45:26.437Z,59.472656
2019-02-18T00:46:36.019Z,59.368896
2019-02-18T00:47:47.912Z,59.130859
2019-02-18T00:48:55.099Z,58.813477
2019-02-18T00:50:04.607Z,58.709717
2019-02-18T00:51:14.132Z,58.270264
2019-02-18T00:52:23.693Z,58.270264
2019-02-18T00:53:33.237Z,58.1604
2019-02-18T00:54:42.765Z,58.374023
2019-02-18T00:55:52.266Z,58.374023
2019-02-18T00:57:01.795Z,58.270264
2019-02-18T00:58:11.328Z,58.190918
2019-02-18T00:59:20.857Z,58.398438
2019-02-18T01:00:30.364Z,58.294678
2019-02-18T01:01:39.873Z,58.294678
2019-02-18T01:02:49.433Z,58.190918
2019-02-18T01:03:58.959Z,58.087158
2019-02-18T01:05:08.464Z,57.983398
2019-02-18T01:06:17.993Z,57.952881
2019-02-18T01:07:34.386Z,58.056641
2019-02-18T01:08:38.051Z,58.190918
2019-02-18T01:09:47.592Z,58.605957
2019-02-18T01:10:57.135Z,58.92334
2019-02-18T01:12:06.688Z,59.259033
2019-02-18T01:13:16.204Z,59.472656
2019-02-18T01:14:25.726Z,59.783936
2019-02-18T01:15:35.336Z,60.333252
2019-02-18T01:16:44.873Z,60.754395
2019-02-18T01:17:54.423Z,60.986328
2019-02-18T01:19:03.953Z,60.986328
2019-02-18T01:20:13.495Z,60.986328
2019-02-18T01:21:23.012Z,60.882568
2019-02-18T01:22:32.545Z,61.096191
2019-02-18T01:23:42.061Z,61.199951
2019-02-18T01:24:51.591Z,61.199951
2019-02-18T01:26:01.168Z,61.303711
2019-02-18T01:27:10.794Z,61.828613
2019-02-18T01:28:20.420Z,62.37793
2019-02-18T01:29:29.991Z,63.110352
2019-02-18T01:30:39.586Z,63.348389
2019-02-18T01:31:49.217Z,63.873291
2019-02-18T01:32:58.790Z,64.318848
2019-02-18T01:34:08.302Z,64.532471
2019-02-18T01:35:17.836Z,64.73999
2019-02-18T01:36:27.428Z,64.978027
2019-02-18T01:37:45.151Z,64.84375
2019-02-18T01:38:47.463Z,64.63623
2019-02-18T01:39:56.990Z,64.63623
2019-02-18T01:41:06.547Z,64.94751
2019-02-18T01:42:16.089Z,64.94751
2019-02-18T01:43:25.600Z,64.84375
2019-02-18T01:44:35.135Z,64.84375
2019-02-18T01:45:44.652Z,64.94751
2019-02-18T01:46:54.194Z,64.73999
2019-02-18T01:48:03.719Z,65.161133
2019-02-18T01:49:13.263Z,65.472412
2019-02-18T01:50:22.800Z,65.679932
2019-02-18T01:51:32.320Z,65.814209
2019-02-18T01:52:41.871Z,65.924072
2019-02-18T01:53:51.398Z,66.162109
2019-02-18T01:55:00.940Z,66.473389
2019-02-18T01:56:10.448Z,66.687012
2019-02-18T01:57:19.973Z,66.687012
2019-02-18T01:58:29.529Z,66.473389
2019-02-18T01:59:39.032Z,66.687012
2019-02-18T02:00:48.580Z,66.925049
2019-02-18T02:01:58.055Z,66.925049
2019-02-18T02:03:07.589Z,66.925049
2019-02-18T02:04:17.103Z,66.717529
2019-02-18T02:05:26.630Z,66.687012
2019-02-18T02:06:36.153Z,66.821289
2019-02-18T02:07:55.329Z,66.821289
2019-02-18T02:08:56.175Z,66.821289
2019-02-18T02:10:05.710Z,66.821289
2019-02-18T02:11:15.220Z,66.925049
2019-02-18T02:12:24.757Z,67.138672
2019-02-18T02:13:34.298Z,67.242432
2019-02-18T02:14:43.816Z,67.242432
2019-02-18T02:15:53.321Z,67.138672
2019-02-18T02:17:02.821Z,67.242432
2019-02-18T02:18:12.344Z,67.553711
2019-02-18T02:19:21.873Z,67.767334
2019-02-18T02:20:31.384Z,67.767334
2019-02-18T02:21:40.926Z,67.974854
2019-02-18T02:22:50.455Z,67.657471
2019-02-18T02:23:59.961Z,67.974854
2019-02-18T02:25:09.491Z,68.182373
2019-02-18T02:26:19.025Z,68.292236
2019-02-18T02:27:28.533Z,68.182373
2019-02-18T02:28:38.075Z,67.901611
2019-02-18T02:29:47.584Z,68.426514
2019-02-18T02:30:57.202Z,68.737793
2019-02-18T02:32:06.620Z,69.372559
2019-02-18T02:33:16.169Z,69.897461
2019-02-18T02:34:25.682Z,70.3125
2019-02-18T02:35:35.205Z,69.787598
2019-02-18T02:36:44.735Z,69.476318
2019-02-18T02:37:54.318Z,69.158936
2019-02-18T02:39:04.814Z,69.158936
2019-02-18T02:40:14.335Z,69.055176
2019-02-18T02:41:23.866Z,69.299316
2019-02-18T02:42:33.383Z,69.403076
2019-02-18T02:43:42.938Z,69.403076
2019-02-18T02:44:52.488Z,69.299316
2019-02-18T02:46:02.004Z,69.403076
2019-02-18T02:47:12.528Z,69.610596
2019-02-18T02:48:22.066Z,69.506836
2019-02-18T02:49:31.582Z,69.506836
2019-02-18T02:50:41.106Z,69.189453
2019-02-18T02:51:50.626Z,69.403076
2019-02-18T02:53:00.126Z,69.299316
2019-02-18T02:54:09.658Z,69.085693
2019-02-18T02:55:19.199Z,69.085693
2019-02-18T02:56:28.743Z,68.981934
2019-02-18T02:57:38.246Z,68.878174
2019-02-18T02:58:47.776Z,68.981934
2019-02-18T02:59:57.289Z,69.189453
2019-02-18T03:01:06.816Z,69.329834
2019-02-18T03:02:16.349Z,69.433594
2019-02-18T03:03:25.882Z,69.329834
2019-02-18T03:04:35.394Z,69.116211
2019-02-18T03:05:44.914Z,69.012451
2019-02-18T03:06:54.459Z,68.908691
2019-02-18T03:08:03.981Z,68.981934
2019-02-18T03:09:14.534Z,68.981934
2019-02-18T03:10:24.053Z,68.774414
2019-02-18T03:11:33.576Z,68.353271
2019-02-18T03:12:43.110Z,68.109131
2019-02-18T03:13:52.654Z,67.687988
2019-02-18T03:15:02.163Z,67.797852
2019-02-18T03:16:12.679Z,67.797852
2019-02-18T03:17:22.176Z,68.109131
2019-02-18T03:18:31.703Z,68.212891
2019-02-18T03:19:41.226Z,68.774414
2019-02-18T03:20:50.788Z,68.634033
2019-02-18T03:22:00.320Z,68.737793
2019-02-18T03:23:09.844Z,68.322754
2019-02-18T03:24:19.363Z,68.005371
2019-02-18T03:25:28.892Z,68.530273
2019-02-18T03:26:38.398Z,68.634033
2019-02-18T03:27:47.946Z,68.774414
2019-02-18T03:28:57.490Z,68.457031
2019-02-18T03:30:07.019Z,68.457031
2019-02-18T03:31:16.538Z,68.664551
2019-02-18T03:32:26.063Z,68.981934
2019-02-18T03:33:35.606Z,69.641113
2019-02-18T03:34:45.145Z,69.958496
2019-02-18T03:35:54.664Z,70.483398
2019-02-18T03:37:04.179Z,70.904541
2019-02-18T03:38:13.702Z,71.252441
2019-02-18T03:39:23.243Z,71.459961
2019-02-18T03:40:32.756Z,71.984863
2019-02-18T03:41:42.292Z,72.509766
2019-02-18T03:42:51.813Z,72.827148
2019-02-18T03:44:01.353Z,72.86377
2019-02-18T03:45:10.883Z,72.86377
2019-02-18T03:46:20.407Z,73.175049
2019-02-18T03:47:29.943Z,73.388672
2019-02-18T03:48:39.508Z,73.840332
2019-02-18T03:49:49.019Z,74.468994
2019-02-18T03:50:58.547Z,74.786377
2019-02-18T03:52:08.096Z,75.55542
2019-02-18T03:53:17.668Z,75.872803
2019-02-18T03:54:27.191Z,76.507568
2019-02-18T03:55:36.728Z,76.611328
2019-02-18T03:56:46.242Z,76.818848
2019-02-18T03:57:55.756Z,76.611328
2019-02-18T03:59:05.261Z,76.190186
2019-02-18T04:00:14.767Z,77.276611
2019-02-18T04:01:25.271Z,78.015137
2019-02-18T04:02:34.827Z,78.436279
2019-02-18T04:03:44.406Z,78.753662
2019-02-18T04:04:53.959Z,78.78418
2019-02-18T04:06:03.477Z,79.205322
2019-02-18T04:07:13.008Z,79.174805
2019-02-18T04:08:22.528Z,78.643799
2019-02-18T04:09:32.050Z,78.436279
2019-02-18T04:10:41.553Z,78.222656
2019-02-18T04:11:51.055Z,77.911377
2019-02-18T04:13:00.595Z,77.801514
2019-02-18T04:14:10.129Z,77.911377
2019-02-18T04:15:19.643Z,77.911377
2019-02-18T04:16:29.188Z,77.593994
2019-02-18T04:17:38.712Z,77.801514
2019-02-18T04:18:48.241Z,78.259277
2019-02-18T04:19:57.771Z,78.57666
2019-02-18T04:21:07.316Z,78.33252
2019-02-18T04:22:16.855Z,78.015137
2019-02-18T04:23:26.373Z,77.911377
2019-02-18T04:24:35.918Z,77.172852
2019-02-18T04:25:45.453Z,77.276611
2019-02-18T04:26:54.979Z,77.276611
2019-02-18T04:28:04.506Z,77.490234
2019-02-18T04:29:14.017Z,77.380371
2019-02-18T04:30:23.546Z,77.172852
2019-02-18T04:31:33.084Z,77.313232
2019-02-18T04:32:42.623Z,77.520752
2019-02-18T04:33:52.143Z,77.520752
2019-02-18T04:35:01.648Z,78.155518
2019-02-18T04:36:11.185Z,78.924561
2019-02-18T04:37:20.726Z,79.034424
2019-02-18T04:38:30.245Z,79.455566
2019-02-18T04:39:39.777Z,79.803467
2019-02-18T04:40:49.304Z,79.91333
2019-02-18T04:41:58.818Z,80.578613
2019-02-18T04:43:08.335Z,81.213379
2019-02-18T04:44:17.871Z,81.427002
2019-02-18T04:45:27.408Z,81.530762
2019-02-18T04:46:37.044Z,81.738281
2019-02-18T04:47:46.557Z,82.269287
2019-02-18T04:48:56.067Z,82.165527
2019-02-18T04:50:05.602Z,81.951904
2019-02-18T04:51:15.127Z,81.530762
2019-02-18T04:52:24.621Z,81.213379
2019-02-18T04:53:34.135Z,81.109619
2019-02-18T04:54:43.655Z,81.317139
2019-02-18T04:55:53.182Z,81.427002
2019-02-18T04:57:02.695Z,81.213379
2019-02-18T04:58:12.214Z,81.213379
2019-02-18T04:59:21.750Z,81.005859
2019-02-18T05:00:31.247Z,80.895996
2019-02-18T05:01:40.765Z,80.755615
2019-02-18T05:02:50.274Z,80.438232
2019-02-18T05:03:59.808Z,80.334473
2019-02-18T05:05:09.331Z,80.334473
2019-02-18T05:06:18.872Z,80.12085
2019-02-18T05:07:29.411Z,79.699707
2019-02-18T05:08:38.914Z,79.455566
2019-02-18T05:09:48.432Z,79.241943
2019-02-18T05:10:57.994Z,79.241943
2019-02-18T05:12:07.516Z,78.613281
2019-02-18T05:13:17.038Z,78.503418
2019-02-18T05:14:26.587Z,78.613281
2019-02-18T05:15:36.114Z,78.192139
2019-02-18T05:16:45.650Z,78.503418
2019-02-18T05:17:55.161Z,78.717041
2019-02-18T05:19:04.679Z,78.717041
2019-02-18T05:20:14.216Z,78.613281
2019-02-18T05:21:23.759Z,78.503418
2019-02-18T05:22:33.274Z,78.717041
2019-02-18T05:23:42.807Z,78.717041
2019-02-18T05:24:52.358Z,78.68042
2019-02-18T05:26:01.905Z,78.155518
2019-02-18T05:27:11.436Z,77.520752
2019-02-18T05:28:20.958Z,77.069092
2019-02-18T05:29:30.462Z,76.959229
2019-02-18T05:30:39.977Z,77.099609
2019-02-18T05:31:49.515Z,76.89209
2019-02-18T05:32:59.059Z,77.416992
2019-02-18T05:34:08.610Z,78.051758
2019-02-18T05:35:18.145Z,78.613281
2019-02-18T05:36:27.689Z,78.613281
2019-02-18T05:37:37.203Z,78.613281
2019-02-18T05:38:46.730Z,78.399658
2019-02-18T05:39:56.260Z,78.503418
2019-02-18T05:41:05.740Z,78.717041
2019-02-18T05:42:15.434Z,78.961182
2019-02-18T05:43:24.974Z,78.753662
2019-02-18T05:44:34.484Z,78.857422
2019-02-18T05:45:44.014Z,79.595947
2019-02-18T05:46:53.557Z,80.12085
2019-02-18T05:48:03.106Z,80.01709
2019-02-18T05:49:12.599Z,80.438232
2019-02-18T05:50:22.102Z,80.474854
2019-02-18T05:51:31.643Z,80.474854
2019-02-18T05:52:41.165Z,80.371094
2019-02-18T05:53:50.688Z,80.578613
2019-02-18T05:55:00.426Z,80.578613
2019-02-18T05:56:09.750Z,80.792236
2019-02-18T05:57:19.400Z,81.213379
2019-02-18T05:58:27.901Z,81.427002
2019-02-18T05:59:37.418Z,81.427002
2019-02-18T06:00:46.930Z,81.427002
2019-02-18T06:01:56.480Z,81.213379
2019-02-18T06:03:06.004Z,81.005859
2019-02-18T06:04:15.516Z,80.792236
2019-02-18T06:05:25.040Z,80.474854
2019-02-18T06:06:34.544Z,80.01709
2019-02-18T06:07:44.087Z,79.699707
2019-02-18T06:08:53.614Z,78.717041
2019-02-18T06:10:03.133Z,78.399658
2019-02-18T06:11:12.654Z,77.978516
2019-02-18T06:12:22.172Z,77.770996
2019-02-18T06:13:31.691Z,77.838135
2019-02-18T06:14:41.203Z,77.734375
2019-02-18T06:15:50.735Z,77.416992
2019-02-18T06:17:02.594Z,76.99585
2019-02-18T06:18:09.960Z,76.574707
2019-02-18T06:19:19.488Z,76.257324
2019-02-18T06:20:30.032Z,76.470947
2019-02-18T06:21:39.623Z,76.574707
2019-02-18T06:22:49.144Z,76.715088
2019-02-18T06:23:58.653Z,76.715088
2019-02-18T06:25:08.159Z,77.13623
2019-02-18T06:26:17.703Z,77.453613
2019-02-18T06:27:27.237Z,77.520752
2019-02-18T06:28:36.763Z,77.838135
2019-02-18T06:29:46.272Z,77.630615
2019-02-18T06:30:55.779Z,77.520752
2019-02-18T06:32:04.360Z,77.838135
2019-02-18T06:33:13.875Z,77.838135
2019-02-18T06:34:23.407Z,77.941895
2019-02-18T06:35:32.919Z,77.911377
2019-02-18T06:36:42.452Z,77.911377
2019-02-18T06:37:51.986Z,77.911377
2019-02-18T06:39:01.516Z,77.911377
2019-02-18T06:40:11.024Z,77.764893
2019-02-18T06:41:20.543Z,77.874756
2019-02-18T06:42:30.049Z,77.764893
2019-02-18T06:43:39.553Z,77.557373
2019-02-18T06:44:49.058Z,77.764893
2019-02-18T06:45:58.570Z,77.624512
2019-02-18T06:47:08.154Z,77.099609
2019-02-18T06:48:17.674Z,76.678467
2019-02-18T06:49:27.185Z,75.946045
2019-02-18T06:50:36.712Z,75.701904
2019-02-18T06:51:46.248Z,75.384521
2019-02-18T06:52:55.782Z,75.067139
2019-02-18T06:54:05.303Z,75.036621
2019-02-18T06:55:14.824Z,74.511719
2019-02-18T06:56:24.357Z,73.632812
2019-02-18T06:57:33.884Z,73.425293
2019-02-18T06:58:43.399Z,73.529053
2019-02-18T06:59:52.904Z,73.632812
2019-02-18T07:01:02.415Z,73.498535
2019-02-18T07:02:11.940Z,72.65625
2019-02-18T07:03:21.474Z,72.729492
2019-02-18T07:04:30.989Z,72.729492
2019-02-18T07:05:40.525Z,72.277832
2019-02-18T07:06:50.046Z,71.856689
2019-02-18T07:07:59.567Z,71.405029
2019-02-18T07:09:09.090Z,70.672607
2019-02-18T07:10:18.606Z,70.324707
2019-02-18T07:11:28.126Z,69.769287
2019-02-18T07:12:37.655Z,69.000244
2019-02-18T07:13:47.216Z,67.956543
2019-02-18T07:14:56.714Z,67.089844
2019-02-18T07:16:06.261Z,66.326904
2019-02-18T07:17:15.790Z,65.460205
2019-02-18T07:18:25.309Z,64.624023
2019-02-18T07:19:34.810Z,63.336182
2019-02-18T07:20:44.332Z,62.475586
2019-02-18T07:21:53.857Z,61.401367
2019-02-18T07:23:03.412Z,60.980225
2019-02-18T07:24:15.176Z,60.223389
2019-02-18T07:25:22.455Z,59.466553
2019-02-18T07:26:31.974Z,58.837891
2019-02-18T07:27:41.498Z,58.502197
2019-02-18T07:28:51.021Z,57.873535
2019-02-18T07:30:00.532Z,57.434082
2019-02-18T07:31:10.045Z,56.988525
2019-02-18T07:32:19.586Z,56.781006
2019-02-18T07:33:29.118Z,56.439209
2019-02-18T07:34:38.641Z,56.231689
2019-02-18T07:35:48.167Z,56.103516
2019-02-18T07:36:57.697Z,55.688477
2019-02-18T07:38:07.242Z,55.163574
2019-02-18T07:39:16.767Z,55.0354
2019-02-18T07:40:26.285Z,55.13916
2019-02-18T07:41:35.836Z,54.284668
2019-02-18T07:42:45.412Z,53.765869
2019-02-18T07:43:54.930Z,53.533936
2019-02-18T07:45:04.473Z,53.326416
2019-02-18T07:46:13.990Z,53.088379
2019-02-18T07:47:23.510Z,52.7771
2019-02-18T07:48:33.037Z,52.46582
2019-02-18T07:49:42.554Z,52.130127
2019-02-18T07:50:52.071Z,51.068115
2019-02-18T07:52:01.608Z,50.860596
2019-02-18T07:53:11.140Z,50.238037
2019-02-18T07:54:20.655Z,50.219727
2019-02-18T07:55:30.164Z,49.987793
2019-02-18T07:56:39.686Z,49.468994
2019-02-18T07:57:49.249Z,48.822021
2019-02-18T07:58:58.777Z,47.991943
2019-02-18T08:00:08.299Z,47.991943
2019-02-18T08:01:17.802Z,48.095703
2019-02-18T08:02:27.323Z,47.973633
2019-02-18T08:03:36.857Z,47.558594
2019-02-18T08:04:46.365Z,46.936035
2019-02-18T08:05:55.885Z,47.119141
2019-02-18T08:07:05.409Z,47.119141
2019-02-18T08:08:14.944Z,46.911621
2019-02-18T08:09:24.468Z,46.789551
2019-02-18T08:10:34.021Z,46.685791
2019-02-18T08:11:43.693Z,46.356201
2019-02-18T08:12:53.279Z,46.044922
2019-02-18T08:14:02.814Z,45.501709
2019-02-18T08:15:12.335Z,45.196533
2019-02-18T08:16:21.838Z,44.86084
2019-02-18T08:17:31.382Z,44.53125
2019-02-18T08:18:40.904Z,44.018555
2019-02-18T08:19:50.422Z,43.890381
2019-02-18T08:20:59.926Z,43.481445
2019-02-18T08:22:09.453Z,42.944336
2019-02-18T08:23:19.011Z,42.736816
2019-02-18T08:24:28.509Z,42.822266
2019-02-18T08:25:38.065Z,42.199707
2019-02-18T08:26:47.569Z,41.888428
2019-02-18T08:27:57.080Z,41.662598
2019-02-18T08:29:06.600Z,41.766357
2019-02-18T08:30:16.102Z,41.955566
2019-02-18T08:31:25.616Z,41.442871
2019-02-18T08:32:35.147Z,40.802002
2019-02-18T08:33:44.666Z,40.393066
2019-02-18T08:34:54.197Z,40.167236
2019-02-18T08:36:03.722Z,39.550781
2019-02-18T08:37:13.236Z,39.324951
2019-02-18T08:38:22.755Z,39.202881
2019-02-18T08:39:32.290Z,38.671875
2019-02-18T08:40:41.789Z,39.18457
2019-02-18T08:41:51.291Z,38.757324
2019-02-18T08:43:00.797Z,37.213135
2019-02-18T08:44:10.334Z,36.804199
2019-02-18T08:45:19.846Z,36.474609
2019-02-18T08:46:29.356Z,36.456299
2019-02-18T08:47:38.890Z,35.638428
2019-02-18T08:48:48.468Z,35.620117
2019-02-18T08:49:57.995Z,35.620117
2019-02-18T08:51:07.528Z,36.340332
2019-02-18T08:52:17.038Z,36.029053
2019-02-18T08:53:26.570Z,35.827637
2019-02-18T08:54:36.119Z,36.236572
2019-02-18T08:55:45.640Z,35.516357
2019-02-18T08:56:55.167Z,35.601807
2019-02-18T08:58:04.729Z,35.296631
2019-02-18T08:59:14.256Z,35.076904
2019-02-18T09:00:23.792Z,34.973145
2019-02-18T09:01:33.321Z,34.753418
2019-02-18T09:02:42.833Z,34.735107
2019-02-18T09:03:52.391Z,34.631348
2019-02-18T09:05:01.921Z,33.679199
2019-02-18T09:06:11.433Z,33.154297
2019-02-18T09:07:20.967Z,33.343506
2019-02-18T09:08:30.497Z,32.623291
2019-02-18T09:09:40.034Z,31.90918
2019-02-18T09:10:49.539Z,31.488037
2019-02-18T09:11:59.057Z,31.573486
2019-02-18T09:13:08.613Z,31.469727
2019-02-18T09:14:18.114Z,31.658936
2019-02-18T09:15:27.623Z,31.25
2019-02-18T09:16:37.163Z,30.621338
2019-02-18T09:17:46.694Z,31.018066
2019-02-18T09:18:56.237Z,30.389404
2019-02-18T09:20:05.757Z,29.693604
2019-02-18T09:21:15.289Z,29.675293
2019-02-18T09:22:24.803Z,30.187988
2019-02-18T09:23:34.343Z,29.156494
2019-02-18T09:24:43.850Z,28.833008
2019-02-18T09:25:53.359Z,29.040527
2019-02-18T09:27:02.886Z,28.527832
2019-02-18T09:28:12.450Z,28.527832
2019-02-18T09:29:21.973Z,28.820801
2019-02-18T09:30:31.491Z,28.820801
2019-02-18T09:31:42.840Z,29.022217
2019-02-18T09:32:50.559Z,28.808594
2019-02-18T09:34:00.158Z,28.283691
2019-02-18T09:35:09.673Z,28.082275
2019-02-18T09:36:21.330Z,28.271484
2019-02-18T09:37:28.743Z,27.850342
2019-02-18T09:38:38.264Z,27.154541
2019-02-18T09:39:47.805Z,27.661133
2019-02-18T09:40:57.337Z,27.880859
2019-02-18T09:42:06.873Z,27.880859
2019-02-18T09:43:16.412Z,28.070068
2019-02-18T09:44:25.934Z,28.070068
2019-02-18T09:45:35.462Z,27.648926
2019-02-18T09:46:44.979Z,27.648926
2019-02-18T09:47:54.598Z,27.331543
2019-02-18T09:49:04.017Z,27.532959
2019-02-18T09:50:13.545Z,27.130127
2019-02-18T09:51:23.076Z,26.824951
2019-02-18T09:52:32.629Z,27.01416
2019-02-18T09:53:42.163Z,26.898193
2019-02-18T09:54:51.687Z,26.275635
2019-02-18T09:56:01.219Z,25.567627
2019-02-18T09:57:10.736Z,25.567627
2019-02-18T09:58:20.285Z,25.463867
2019-02-18T09:59:29.802Z,25.65918
2019-02-18T10:00:39.328Z,25.756836
2019-02-18T10:01:48.852Z,24.530029
2019-02-18T10:02:58.377Z,24.11499
2019-02-18T10:04:07.912Z,23.797607
2019-02-18T10:05:17.453Z,23.7854
2019-02-18T10:06:26.989Z,23.986816
2019-02-18T10:07:36.520Z,23.88916
2019-02-18T10:08:46.085Z,23.077393
2019-02-18T10:09:55.611Z,23.596191
2019-02-18T10:11:05.131Z,23.596191
2019-02-18T10:12:18.202Z,23.492432
2019-02-18T10:13:24.135Z,23.999023
2019-02-18T10:14:33.724Z,23.693848
2019-02-18T10:15:43.262Z,22.674561
2019-02-18T10:16:52.782Z,22.570801
2019-02-18T10:18:02.305Z,22.674561
2019-02-18T10:19:11.855Z,22.369385
2019-02-18T10:20:21.391Z,22.369385
2019-02-18T10:21:30.924Z,22.064209
2019-02-18T10:22:40.441Z,22.357178
2019-02-18T10:23:49.976Z,22.357178
2019-02-18T10:24:59.534Z,22.662354
2019-02-18T10:26:09.065Z,22.753906
2019-02-18T10:27:18.621Z,23.248291
2019-02-18T10:28:28.132Z,23.144531
2019-02-18T10:29:37.666Z,22.338867
2019-02-18T10:30:47.168Z,22.650146
2019-02-18T10:31:56.683Z,22.943115
2019-02-18T10:33:06.208Z,22.943115
2019-02-18T10:34:15.753Z,22.436523
2019-02-18T10:35:26.467Z,22.528076
2019-02-18T10:36:34.848Z,21.203613
2019-02-18T10:37:44.387Z,21.105957
2019-02-18T10:38:54.924Z,20.800781
2019-02-18T10:40:04.455Z,20.397949
2019-02-18T10:41:14.010Z,20.196533
2019-02-18T10:42:24.541Z,20.910645
2019-02-18T10:43:34.090Z,21.112061
2019-02-18T10:44:43.632Z,20.910645
2019-02-18T10:45:53.162Z,21.014404
2019-02-18T10:47:02.706Z,20.904541
2019-02-18T10:48:12.238Z,21.014404
2019-02-18T10:49:21.896Z,21.21582
2019-02-18T10:50:31.276Z,21.307373
2019-02-18T10:51:40.810Z,20.794678
2019-02-18T10:52:50.345Z,21.307373
2019-02-18T10:53:59.870Z,21.19751
2019-02-18T10:55:09.380Z,20.587158
2019-02-18T10:56:18.877Z,20.794678
2019-02-18T10:57:28.407Z,20.690918
2019-02-18T10:58:37.952Z,20.996094
2019-02-18T10:59:47.491Z,20.782471
2019-02-18T11:00:57.015Z,20.678711
2019-02-18T11:02:06.538Z,21.185303
2019-02-18T11:03:16.103Z,20.983887
2019-02-18T11:04:25.630Z,21.588135
2019-02-18T11:05:35.143Z,21.075439
2019-02-18T11:06:44.677Z,20.861816
2019-02-18T11:07:54.227Z,20.6604
2019-02-18T11:09:03.758Z,20.562744
2019-02-18T11:10:13.281Z,20.452881
2019-02-18T11:11:22.793Z,20.251465
2019-02-18T11:12:32.318Z,20.452881
2019-02-18T11:13:41.845Z,20.562744
2019-02-18T11:14:51.378Z,21.569824
2019-02-18T11:16:00.911Z,22.473145
2019-02-18T11:17:10.515Z,22.467041
2019-02-18T11:18:20.032Z,21.960449
2019-02-18T11:19:29.560Z,21.350098
2019-02-18T11:20:39.105Z,21.337891
2019-02-18T11:21:48.625Z,21.539307
2019-02-18T11:22:58.150Z,21.850586
2019-02-18T11:24:07.712Z,21.954346
2019-02-18T11:25:17.247Z,22.357178
2019-02-18T11:26:26.755Z,22.039795
2019-02-18T11:27:36.289Z,21.942139
2019-02-18T11:28:45.840Z,21.942139
2019-02-18T11:29:55.366Z,22.143555
2019-02-18T11:31:04.932Z,22.442627
2019-02-18T11:32:14.477Z,22.332764
2019-02-18T11:33:24.008Z,22.033691
2019-02-18T11:34:33.569Z,21.929932
2019-02-18T11:35:44.082Z,21.618652
2019-02-18T11:36:53.611Z,21.917725
2019-02-18T11:38:03.135Z,21.21582
2019-02-18T11:39:12.669Z,21.014404
2019-02-18T11:40:22.234Z,21.429443
2019-02-18T11:41:31.772Z,22.033691
2019-02-18T11:42:41.288Z,21.508789
2019-02-18T11:43:50.820Z,20.605469
2019-02-18T11:45:00.372Z,20.300293
2019-02-18T11:46:09.906Z,20.794678
2019-02-18T11:47:19.430Z,20.892334
2019-02-18T11:48:28.956Z,20.483398
2019-02-18T11:49:38.493Z,20.391846
2019-02-18T11:50:48.016Z,20.690918
2019-02-18T11:51:59.448Z,19.891357
2019-02-18T11:53:07.039Z,20.19043
2019-02-18T11:54:16.569Z,20.593262
2019-02-18T11:55:26.107Z,20.281982
2019-02-18T11:56:35.616Z,19.873047
2019-02-18T11:57:45.131Z,20.263672
2019-02-18T11:58:54.663Z,20.159912
2019-02-18T12:00:04.184Z,20.965576
2019-02-18T12:01:13.697Z,21.166992
2019-02-18T12:02:23.224Z,21.606445
2019-02-18T12:03:32.760Z,22.424316
2019-02-18T12:04:42.282Z,22.198486
2019-02-18T12:05:51.808Z,21.478271
2019-02-18T12:07:01.325Z,20.86792
2019-02-18T12:08:10.851Z,20.855713
2019-02-18T12:09:20.411Z,20.635986
2019-02-18T12:10:29.875Z,19.824219
2019-02-18T12:11:39.429Z,19.921875
2019-02-18T12:12:48.932Z,19.714355
2019-02-18T12:13:58.459Z,19.714355
2019-02-18T12:15:07.969Z,19.616699
2019-02-18T12:16:17.483Z,19.403076
2019-02-18T12:17:27.020Z,18.902588
2019-02-18T12:18:36.531Z,18.902588
2019-02-18T12:19:46.057Z,18.585205
2019-02-18T12:20:55.605Z,18.29834
2019-02-18T12:22:05.121Z,18.188477
2019-02-18T12:23:14.643Z,17.96875
2019-02-18T12:24:24.167Z,18.07251
2019-02-18T12:25:33.714Z,17.559814
2019-02-18T12:26:43.221Z,17.364502
2019-02-18T12:27:52.722Z,17.248535
2019-02-18T12:29:02.241Z,17.5354
2019-02-18T12:30:11.782Z,16.741943
2019-02-18T12:31:21.301Z,16.534424
2019-02-18T12:32:30.869Z,19.512939
2019-02-18T12:33:40.404Z,19.403076
2019-02-18T12:34:49.928Z,18.798828
2019-02-18T12:35:59.489Z,18.780518
2019-02-18T12:37:09.033Z,17.669678
2019-02-18T12:38:18.572Z,16.772461
2019-02-18T12:39:28.089Z,18.157959
2019-02-18T12:40:37.622Z,18.75
2019-02-18T12:41:48.877Z,16.369629
2019-02-18T12:42:56.662Z,17.352295
2019-02-18T12:44:06.189Z,17.156982
2019-02-18T12:45:15.715Z,16.668701
2019-02-18T12:46:25.236Z,18.237305
2019-02-18T12:47:34.763Z,16.546631
2019-02-18T12:48:44.271Z,15.74707
2019-02-18T12:49:53.827Z,15.246582
2019-02-18T12:51:03.356Z,17.028809
2019-02-18T12:52:12.899Z,18.023682
2019-02-18T12:53:22.404Z,16.827393
2019-02-18T12:54:31.920Z,15.936279
2019-02-18T12:55:41.474Z,15.142822
2019-02-18T12:56:51.006Z,15.643311
2019-02-18T12:58:00.552Z,15.637207
2019-02-18T12:59:10.060Z,15.826416
2019-02-18T13:00:19.658Z,16.320801
2019-02-18T13:01:29.186Z,16.119385
2019-02-18T13:02:43.986Z,15.722656
2019-02-18T13:03:49.191Z,14.84375
2019-02-18T13:04:58.738Z,15.838623
2019-02-18T13:06:08.274Z,15.734863
2019-02-18T13:07:17.804Z,15.05127
2019-02-18T13:08:27.336Z,15.270996
2019-02-18T13:09:36.879Z,15.899658
2019-02-18T13:10:46.405Z,16.192627
2019-02-18T13:11:58.865Z,15.802002
2019-02-18T13:13:05.407Z,16.30249
2019-02-18T13:14:14.923Z,16.516113
2019-02-18T13:15:24.476Z,16.497803